sensor_id;sensor_type;location;lat;lon;timestamp;P1;durP1;ratioP1;P2;durP2;ratioP2
9842;SDS011;4960;48.736;9.108;2022-09-19T00:01:19;0.40;;;0.30;;
9842;SDS011;4960;48.736;9.108;2022-09-19T00:03:47;0.20;;;0.20;;
9842;SDS011;4960;48.736;9.108;2022-09-19T00:06:18;0.97;;;0.30;;
9842;SDS011;4960;48.736;9.108;2022-09-19T00:08:46;0.20;;;0.20;;
9842;SDS011;4960;48.736;9.108;2022-09-19T00:11:14;0.20;;;0.20;;
9842;SDS011;4960;48.736;9.108;2022-09-19T00:13:42;0.30;;;0.30;;
9842;SDS011;4960;48.736;9.108;2022-09-19T00:16:10;0.20;;;0.20;;
9842;SDS011;4960;48.736;9.108;2022-09-19T00:18:37;0.30;;;0.30;;
9842;SDS011;4960;48.736;9.108;2022-09-19T00:21:05;0.20;;;0.20;;
9842;SDS011;4960;48.736;9.108;2022-09-19T00:23:33;0.30;;;0.30;;
9842;SDS011;4960;48.736;9.108;2022-09-19T00:26:18;0.20;;;0.20;;
9842;SDS011;4960;48.736;9.108;2022-09-19T00:28:46;0.10;;;0.10;;
9842;SDS011;4960;48.736;9.108;2022-09-19T00:31:14;0.33;;;0.20;;
9842;SDS011;4960;48.736;9.108;2022-09-19T00:33:42;1.07;;;0.47;;
9842;SDS011;4960;48.736;9.108;2022-09-19T00:36:11;1.33;;;0.10;;
9842;SDS011;4960;48.736;9.108;2022-09-19T00:38:40;0.20;;;0.20;;
9842;SDS011;4960;48.736;9.108;2022-09-19T00:41:10;0.20;;;0.20;;
9842;SDS011;4960;48.736;9.108;2022-09-19T00:43:43;0.37;;;0.20;;
9842;SDS011;4960;48.736;9.108;2022-09-19T00:46:10;0.20;;;0.20;;
9842;SDS011;4960;48.736;9.108;2022-09-19T00:48:37;0.17;;;0.17;;
9842;SDS011;4960;48.736;9.108;2022-09-19T00:51:07;2.53;;;0.20;;
9842;SDS011;4960;48.736;9.108;2022-09-19T00:53:35;0.17;;;0.17;;
9842;SDS011;4960;48.736;9.108;2022-09-19T00:56:04;0.30;;;0.20;;
9842;SDS011;4960;48.736;9.108;2022-09-19T00:58:33;1.23;;;0.20;;
9842;SDS011;4960;48.736;9.108;2022-09-19T01:01:00;0.20;;;0.20;;
9842;SDS011;4960;48.736;9.108;2022-09-19T01:03:28;3.40;;;0.23;;
9842;SDS011;4960;48.736;9.108;2022-09-19T01:06:06;0.37;;;0.20;;
9842;SDS011;4960;48.736;9.108;2022-09-19T01:08:41;1.13;;;0.20;;
9842;SDS011;4960;48.736;9.108;2022-09-19T01:11:25;0.20;;;0.20;;
9842;SDS011;4960;48.736;9.108;2022-09-19T01:14:00;0.97;;;0.20;;
9842;SDS011;4960;48.736;9.108;2022-09-19T01:16:32;0.23;;;0.20;;
9842;SDS011;4960;48.736;9.108;2022-09-19T01:19:05;0.30;;;0.30;;
9842;SDS011;4960;48.736;9.108;2022-09-19T01:21:40;0.30;;;0.30;;
9842;SDS011;4960;48.736;9.108;2022-09-19T01:27:07;0.20;;;0.20;;
9842;SDS011;4960;48.736;9.108;2022-09-19T01:29:40;0.43;;;0.43;;
9842;SDS011;4960;48.736;9.108;2022-09-19T01:32:11;1.80;;;0.20;;
9842;SDS011;4960;48.736;9.108;2022-09-19T01:34:40;2.30;;;0.20;;
9842;SDS011;4960;48.736;9.108;2022-09-19T01:37:11;0.30;;;0.30;;
9842;SDS011;4960;48.736;9.108;2022-09-19T01:39:40;2.33;;;0.20;;
9842;SDS011;4960;48.736;9.108;2022-09-19T01:42:11;0.87;;;0.30;;
9842;SDS011;4960;48.736;9.108;2022-09-19T01:44:39;0.20;;;0.20;;
9842;SDS011;4960;48.736;9.108;2022-09-19T01:47:10;0.20;;;0.20;;
9842;SDS011;4960;48.736;9.108;2022-09-19T01:49:40;1.17;;;0.40;;
9842;SDS011;4960;48.736;9.108;2022-09-19T01:52:12;0.40;;;0.30;;
9842;SDS011;4960;48.736;9.108;2022-09-19T01:54:42;0.30;;;0.30;;
9842;SDS011;4960;48.736;9.108;2022-09-19T01:57:18;0.73;;;0.47;;
9842;SDS011;4960;48.736;9.108;2022-09-19T01:59:50;0.53;;;0.30;;
9842;SDS011;4960;48.736;9.108;2022-09-19T02:02:21;0.33;;;0.30;;
9842;SDS011;4960;48.736;9.108;2022-09-19T02:04:51;0.50;;;0.50;;
9842;SDS011;4960;48.736;9.108;2022-09-19T02:07:25;0.40;;;0.40;;
9842;SDS011;4960;48.736;9.108;2022-09-19T02:09:55;0.60;;;0.60;;
9842;SDS011;4960;48.736;9.108;2022-09-19T02:12:25;0.77;;;0.30;;
9842;SDS011;4960;48.736;9.108;2022-09-19T02:14:54;0.40;;;0.40;;
9842;SDS011;4960;48.736;9.108;2022-09-19T02:17:25;0.40;;;0.40;;
9842;SDS011;4960;48.736;9.108;2022-09-19T02:19:57;0.50;;;0.50;;
9842;SDS011;4960;48.736;9.108;2022-09-19T02:22:27;2.30;;;0.40;;
9842;SDS011;4960;48.736;9.108;2022-09-19T02:24:55;0.97;;;0.50;;
9842;SDS011;4960;48.736;9.108;2022-09-19T02:27:25;0.87;;;0.50;;
9842;SDS011;4960;48.736;9.108;2022-09-19T02:29:56;0.50;;;0.43;;
9842;SDS011;4960;48.736;9.108;2022-09-19T02:32:25;1.90;;;0.80;;
9842;SDS011;4960;48.736;9.108;2022-09-19T02:34:53;0.83;;;0.50;;
9842;SDS011;4960;48.736;9.108;2022-09-19T02:37:21;3.83;;;0.50;;
9842;SDS011;4960;48.736;9.108;2022-09-19T02:39:57;0.60;;;0.50;;
9842;SDS011;4960;48.736;9.108;2022-09-19T02:42:27;1.53;;;0.50;;
9842;SDS011;4960;48.736;9.108;2022-09-19T02:45:03;0.50;;;0.50;;
9842;SDS011;4960;48.736;9.108;2022-09-19T02:47:33;1.70;;;0.40;;
9842;SDS011;4960;48.736;9.108;2022-09-19T02:50:03;0.57;;;0.57;;
9842;SDS011;4960;48.736;9.108;2022-09-19T02:52:34;1.33;;;0.50;;
9842;SDS011;4960;48.736;9.108;2022-09-19T02:55:03;1.80;;;0.60;;
9842;SDS011;4960;48.736;9.108;2022-09-19T02:57:33;0.57;;;0.50;;
9842;SDS011;4960;48.736;9.108;2022-09-19T03:00:03;3.10;;;0.50;;
9842;SDS011;4960;48.736;9.108;2022-09-19T03:02:32;5.40;;;0.50;;
9842;SDS011;4960;48.736;9.108;2022-09-19T03:05:01;1.13;;;0.50;;
9842;SDS011;4960;48.736;9.108;2022-09-19T03:07:32;1.30;;;0.60;;
9842;SDS011;4960;48.736;9.108;2022-09-19T03:10:02;0.50;;;0.50;;
9842;SDS011;4960;48.736;9.108;2022-09-19T03:12:32;1.40;;;0.53;;
9842;SDS011;4960;48.736;9.108;2022-09-19T03:15:02;1.20;;;0.60;;
9842;SDS011;4960;48.736;9.108;2022-09-19T03:17:31;0.77;;;0.57;;
9842;SDS011;4960;48.736;9.108;2022-09-19T03:22:28;1.17;;;0.80;;
9842;SDS011;4960;48.736;9.108;2022-09-19T03:24:55;1.27;;;0.80;;
9842;SDS011;4960;48.736;9.108;2022-09-19T03:27:26;1.33;;;0.80;;
9842;SDS011;4960;48.736;9.108;2022-09-19T03:29:53;0.73;;;0.63;;
9842;SDS011;4960;48.736;9.108;2022-09-19T03:32:22;0.70;;;0.60;;
9842;SDS011;4960;48.736;9.108;2022-09-19T03:34:51;1.30;;;0.60;;
9842;SDS011;4960;48.736;9.108;2022-09-19T03:37:20;1.80;;;0.60;;
9842;SDS011;4960;48.736;9.108;2022-09-19T03:39:48;0.80;;;0.60;;
9842;SDS011;4960;48.736;9.108;2022-09-19T03:42:15;1.53;;;0.77;;
9842;SDS011;4960;48.736;9.108;2022-09-19T03:44:45;2.00;;;0.87;;
9842;SDS011;4960;48.736;9.108;2022-09-19T03:47:12;0.90;;;0.77;;
9842;SDS011;4960;48.736;9.108;2022-09-19T03:49:42;2.63;;;0.73;;
9842;SDS011;4960;48.736;9.108;2022-09-19T03:52:09;5.67;;;0.80;;
9842;SDS011;4960;48.736;9.108;2022-09-19T03:54:36;1.87;;;0.70;;
9842;SDS011;4960;48.736;9.108;2022-09-19T03:57:03;5.40;;;1.00;;
9842;SDS011;4960;48.736;9.108;2022-09-19T03:59:31;2.10;;;0.87;;
9842;SDS011;4960;48.736;9.108;2022-09-19T04:01:58;3.93;;;0.97;;
9842;SDS011;4960;48.736;9.108;2022-09-19T04:04:25;1.10;;;1.00;;
9842;SDS011;4960;48.736;9.108;2022-09-19T04:06:53;2.80;;;0.83;;
9842;SDS011;4960;48.736;9.108;2022-09-19T04:09:21;2.50;;;0.90;;
9842;SDS011;4960;48.736;9.108;2022-09-19T04:11:48;5.80;;;1.10;;
9842;SDS011;4960;48.736;9.108;2022-09-19T04:14:15;8.37;;;1.30;;
9842;SDS011;4960;48.736;9.108;2022-09-19T04:16:43;2.33;;;0.80;;
9842;SDS011;4960;48.736;9.108;2022-09-19T04:19:10;5.93;;;1.40;;
9842;SDS011;4960;48.736;9.108;2022-09-19T04:21:37;3.87;;;1.10;;
9842;SDS011;4960;48.736;9.108;2022-09-19T04:24:08;6.23;;;0.97;;
9842;SDS011;4960;48.736;9.108;2022-09-19T04:26:36;1.80;;;0.83;;
9842;SDS011;4960;48.736;9.108;2022-09-19T04:29:03;5.33;;;1.23;;
9842;SDS011;4960;48.736;9.108;2022-09-19T04:31:32;5.23;;;0.90;;
9842;SDS011;4960;48.736;9.108;2022-09-19T04:34:03;2.60;;;0.83;;
9842;SDS011;4960;48.736;9.108;2022-09-19T04:36:30;5.50;;;1.13;;
9842;SDS011;4960;48.736;9.108;2022-09-19T04:38:58;4.37;;;1.00;;
9842;SDS011;4960;48.736;9.108;2022-09-19T04:41:29;2.63;;;0.87;;
9842;SDS011;4960;48.736;9.108;2022-09-19T04:43:57;4.60;;;1.00;;
9842;SDS011;4960;48.736;9.108;2022-09-19T04:46:24;5.13;;;1.10;;
9842;SDS011;4960;48.736;9.108;2022-09-19T04:48:51;6.33;;;0.93;;
9842;SDS011;4960;48.736;9.108;2022-09-19T04:51:19;4.13;;;0.93;;
9842;SDS011;4960;48.736;9.108;2022-09-19T04:53:47;0.80;;;0.80;;
9842;SDS011;4960;48.736;9.108;2022-09-19T04:56:14;8.60;;;0.90;;
9842;SDS011;4960;48.736;9.108;2022-09-19T04:58:43;4.20;;;0.90;;
9842;SDS011;4960;48.736;9.108;2022-09-19T05:01:11;4.23;;;1.07;;
9842;SDS011;4960;48.736;9.108;2022-09-19T05:03:39;4.13;;;0.90;;
9842;SDS011;4960;48.736;9.108;2022-09-19T05:06:08;5.73;;;1.20;;
9842;SDS011;4960;48.736;9.108;2022-09-19T05:08:36;6.30;;;0.83;;
9842;SDS011;4960;48.736;9.108;2022-09-19T05:11:06;8.73;;;1.10;;
9842;SDS011;4960;48.736;9.108;2022-09-19T05:13:34;4.20;;;0.90;;
9842;SDS011;4960;48.736;9.108;2022-09-19T05:16:05;6.60;;;1.00;;
9842;SDS011;4960;48.736;9.108;2022-09-19T05:18:32;6.20;;;1.10;;
9842;SDS011;4960;48.736;9.108;2022-09-19T05:21:03;6.63;;;1.20;;
9842;SDS011;4960;48.736;9.108;2022-09-19T05:23:31;4.73;;;1.17;;
9842;SDS011;4960;48.736;9.108;2022-09-19T05:26:01;6.00;;;1.03;;
9842;SDS011;4960;48.736;9.108;2022-09-19T05:28:28;6.13;;;1.30;;
9842;SDS011;4960;48.736;9.108;2022-09-19T05:30:56;4.33;;;1.00;;
9842;SDS011;4960;48.736;9.108;2022-09-19T05:33:24;3.97;;;1.10;;
9842;SDS011;4960;48.736;9.108;2022-09-19T05:35:52;4.67;;;1.20;;
9842;SDS011;4960;48.736;9.108;2022-09-19T05:38:21;5.20;;;1.07;;
9842;SDS011;4960;48.736;9.108;2022-09-19T05:40:49;3.43;;;1.00;;
9842;SDS011;4960;48.736;9.108;2022-09-19T05:43:17;4.40;;;1.23;;
9842;SDS011;4960;48.736;9.108;2022-09-19T05:45:44;3.73;;;1.27;;
9842;SDS011;4960;48.736;9.108;2022-09-19T05:48:12;5.70;;;1.37;;
9842;SDS011;4960;48.736;9.108;2022-09-19T05:50:43;3.53;;;1.50;;
9842;SDS011;4960;48.736;9.108;2022-09-19T05:53:10;6.17;;;1.20;;
9842;SDS011;4960;48.736;9.108;2022-09-19T05:55:55;4.17;;;1.40;;
9842;SDS011;4960;48.736;9.108;2022-09-19T05:58:22;6.53;;;1.30;;
9842;SDS011;4960;48.736;9.108;2022-09-19T06:00:50;7.80;;;1.63;;
9842;SDS011;4960;48.736;9.108;2022-09-19T06:03:17;4.73;;;1.50;;
9842;SDS011;4960;48.736;9.108;2022-09-19T06:05:47;6.43;;;1.30;;
9842;SDS011;4960;48.736;9.108;2022-09-19T06:08:16;5.90;;;1.30;;
9842;SDS011;4960;48.736;9.108;2022-09-19T06:10:45;5.97;;;1.40;;
9842;SDS011;4960;48.736;9.108;2022-09-19T06:13:13;13.27;;;1.63;;
9842;SDS011;4960;48.736;9.108;2022-09-19T06:15:41;3.30;;;1.37;;
9842;SDS011;4960;48.736;9.108;2022-09-19T06:18:08;3.37;;;1.20;;
9842;SDS011;4960;48.736;9.108;2022-09-19T06:20:35;6.43;;;1.37;;
9842;SDS011;4960;48.736;9.108;2022-09-19T06:23:05;11.17;;;1.53;;
9842;SDS011;4960;48.736;9.108;2022-09-19T06:25:32;5.33;;;1.20;;
9842;SDS011;4960;48.736;9.108;2022-09-19T06:28:00;7.60;;;1.30;;
9842;SDS011;4960;48.736;9.108;2022-09-19T06:30:28;5.07;;;1.53;;
9842;SDS011;4960;48.736;9.108;2022-09-19T06:32:55;5.63;;;1.30;;
9842;SDS011;4960;48.736;9.108;2022-09-19T06:35:23;6.73;;;1.77;;
9842;SDS011;4960;48.736;9.108;2022-09-19T06:37:56;9.63;;;1.40;;
9842;SDS011;4960;48.736;9.108;2022-09-19T06:40:25;6.60;;;1.03;;
9842;SDS011;4960;48.736;9.108;2022-09-19T06:42:55;8.17;;;0.83;;
9842;SDS011;4960;48.736;9.108;2022-09-19T06:45:24;13.17;;;2.20;;
9842;SDS011;4960;48.736;9.108;2022-09-19T06:47:54;8.33;;;1.40;;
9842;SDS011;4960;48.736;9.108;2022-09-19T06:50:21;6.13;;;1.13;;
9842;SDS011;4960;48.736;9.108;2022-09-19T06:52:49;6.43;;;1.10;;
9842;SDS011;4960;48.736;9.108;2022-09-19T06:55:16;6.30;;;1.20;;
9842;SDS011;4960;48.736;9.108;2022-09-19T06:57:45;8.07;;;1.20;;
9842;SDS011;4960;48.736;9.108;2022-09-19T07:00:19;6.83;;;1.30;;
9842;SDS011;4960;48.736;9.108;2022-09-19T07:02:49;6.90;;;1.10;;
9842;SDS011;4960;48.736;9.108;2022-09-19T07:05:17;7.63;;;1.20;;
9842;SDS011;4960;48.736;9.108;2022-09-19T07:07:45;9.20;;;1.20;;
9842;SDS011;4960;48.736;9.108;2022-09-19T07:10:18;4.53;;;1.20;;
9842;SDS011;4960;48.736;9.108;2022-09-19T07:12:51;11.13;;;1.47;;
9842;SDS011;4960;48.736;9.108;2022-09-19T07:15:18;6.60;;;2.00;;
9842;SDS011;4960;48.736;9.108;2022-09-19T07:17:45;6.37;;;1.20;;
9842;SDS011;4960;48.736;9.108;2022-09-19T07:20:12;6.23;;;1.50;;
9842;SDS011;4960;48.736;9.108;2022-09-19T07:22:40;5.47;;;1.17;;
9842;SDS011;4960;48.736;9.108;2022-09-19T07:25:08;9.33;;;2.30;;
9842;SDS011;4960;48.736;9.108;2022-09-19T07:27:35;10.57;;;1.60;;
9842;SDS011;4960;48.736;9.108;2022-09-19T07:30:04;10.53;;;1.73;;
9842;SDS011;4960;48.736;9.108;2022-09-19T07:32:32;10.20;;;1.50;;
9842;SDS011;4960;48.736;9.108;2022-09-19T07:34:59;10.07;;;1.50;;
9842;SDS011;4960;48.736;9.108;2022-09-19T07:37:26;9.43;;;1.10;;
9842;SDS011;4960;48.736;9.108;2022-09-19T07:39:53;4.13;;;1.00;;
9842;SDS011;4960;48.736;9.108;2022-09-19T07:42:20;9.43;;;1.43;;
9842;SDS011;4960;48.736;9.108;2022-09-19T07:44:48;7.47;;;1.40;;
9842;SDS011;4960;48.736;9.108;2022-09-19T07:47:16;4.17;;;1.40;;
9842;SDS011;4960;48.736;9.108;2022-09-19T07:49:53;9.17;;;1.50;;
9842;SDS011;4960;48.736;9.108;2022-09-19T07:52:20;6.53;;;1.13;;
9842;SDS011;4960;48.736;9.108;2022-09-19T07:54:48;13.80;;;1.77;;
9842;SDS011;4960;48.736;9.108;2022-09-19T07:57:15;7.63;;;1.60;;
9842;SDS011;4960;48.736;9.108;2022-09-19T07:59:42;5.57;;;0.97;;
9842;SDS011;4960;48.736;9.108;2022-09-19T08:02:10;8.93;;;1.70;;
9842;SDS011;4960;48.736;9.108;2022-09-19T08:04:39;11.87;;;1.50;;
9842;SDS011;4960;48.736;9.108;2022-09-19T08:07:06;9.27;;;1.50;;
9842;SDS011;4960;48.736;9.108;2022-09-19T08:09:34;7.87;;;1.13;;
9842;SDS011;4960;48.736;9.108;2022-09-19T08:12:01;7.50;;;1.80;;
9842;SDS011;4960;48.736;9.108;2022-09-19T08:14:29;9.87;;;1.70;;
9842;SDS011;4960;48.736;9.108;2022-09-19T08:16:56;7.83;;;1.63;;
9842;SDS011;4960;48.736;9.108;2022-09-19T08:19:24;8.20;;;1.40;;
9842;SDS011;4960;48.736;9.108;2022-09-19T08:21:52;11.53;;;1.67;;
9842;SDS011;4960;48.736;9.108;2022-09-19T08:24:19;4.93;;;1.40;;
9842;SDS011;4960;48.736;9.108;2022-09-19T08:26:47;10.27;;;1.70;;
9842;SDS011;4960;48.736;9.108;2022-09-19T08:29:15;7.20;;;1.67;;
9842;SDS011;4960;48.736;9.108;2022-09-19T08:31:42;7.73;;;1.40;;
9842;SDS011;4960;48.736;9.108;2022-09-19T08:34:09;5.93;;;1.30;;
9842;SDS011;4960;48.736;9.108;2022-09-19T08:36:37;11.27;;;2.20;;
9842;SDS011;4960;48.736;9.108;2022-09-19T08:39:06;8.40;;;1.50;;
9842;SDS011;4960;48.736;9.108;2022-09-19T08:41:38;13.10;;;2.30;;
9842;SDS011;4960;48.736;9.108;2022-09-19T08:44:08;7.57;;;1.83;;
9842;SDS011;4960;48.736;9.108;2022-09-19T08:46:38;12.37;;;1.40;;
9842;SDS011;4960;48.736;9.108;2022-09-19T08:49:08;5.07;;;1.27;;
9842;SDS011;4960;48.736;9.108;2022-09-19T08:51:39;6.80;;;1.20;;
9842;SDS011;4960;48.736;9.108;2022-09-19T08:54:13;7.20;;;1.30;;
9842;SDS011;4960;48.736;9.108;2022-09-19T08:56:42;8.47;;;1.53;;
9842;SDS011;4960;48.736;9.108;2022-09-19T08:59:11;12.13;;;1.77;;
9842;SDS011;4960;48.736;9.108;2022-09-19T09:01:40;7.20;;;1.67;;
9842;SDS011;4960;48.736;9.108;2022-09-19T09:04:15;10.10;;;1.30;;
9842;SDS011;4960;48.736;9.108;2022-09-19T09:06:45;6.40;;;1.60;;
9842;SDS011;4960;48.736;9.108;2022-09-19T09:09:18;10.60;;;1.50;;
9842;SDS011;4960;48.736;9.108;2022-09-19T09:11:49;7.63;;;1.67;;
9842;SDS011;4960;48.736;9.108;2022-09-19T09:14:24;7.30;;;1.37;;
9842;SDS011;4960;48.736;9.108;2022-09-19T09:16:58;13.03;;;1.63;;
9842;SDS011;4960;48.736;9.108;2022-09-19T09:19:31;6.00;;;1.47;;
9842;SDS011;4960;48.736;9.108;2022-09-19T09:22:01;3.80;;;1.10;;
9842;SDS011;4960;48.736;9.108;2022-09-19T09:24:32;10.00;;;1.83;;
9842;SDS011;4960;48.736;9.108;2022-09-19T09:27:00;11.07;;;1.90;;
9842;SDS011;4960;48.736;9.108;2022-09-19T09:29:30;5.33;;;1.40;;
9842;SDS011;4960;48.736;9.108;2022-09-19T09:31:59;8.23;;;1.63;;
9842;SDS011;4960;48.736;9.108;2022-09-19T09:34:27;9.17;;;1.70;;
9842;SDS011;4960;48.736;9.108;2022-09-19T09:36:58;6.57;;;1.53;;
9842;SDS011;4960;48.736;9.108;2022-09-19T09:39:29;5.53;;;1.50;;
9842;SDS011;4960;48.736;9.108;2022-09-19T09:42:06;9.67;;;1.80;;
9842;SDS011;4960;48.736;9.108;2022-09-19T09:44:40;8.73;;;1.80;;
9842;SDS011;4960;48.736;9.108;2022-09-19T09:47:13;6.23;;;1.70;;
9842;SDS011;4960;48.736;9.108;2022-09-19T09:49:43;13.03;;;1.67;;
9842;SDS011;4960;48.736;9.108;2022-09-19T09:52:16;20.43;;;2.10;;
9842;SDS011;4960;48.736;9.108;2022-09-19T09:54:54;8.47;;;1.57;;
9842;SDS011;4960;48.736;9.108;2022-09-19T09:57:43;7.70;;;1.57;;
9842;SDS011;4960;48.736;9.108;2022-09-19T10:00:14;7.73;;;1.40;;
9842;SDS011;4960;48.736;9.108;2022-09-19T10:03:01;10.63;;;1.90;;
9842;SDS011;4960;48.736;9.108;2022-09-19T10:05:50;6.37;;;1.30;;
9842;SDS011;4960;48.736;9.108;2022-09-19T10:08:18;7.80;;;1.30;;
9842;SDS011;4960;48.736;9.108;2022-09-19T10:10:46;6.87;;;1.20;;
9842;SDS011;4960;48.736;9.108;2022-09-19T10:13:22;7.50;;;1.47;;
9842;SDS011;4960;48.736;9.108;2022-09-19T10:15:51;3.27;;;1.10;;
9842;SDS011;4960;48.736;9.108;2022-09-19T10:18:20;7.00;;;1.37;;
9842;SDS011;4960;48.736;9.108;2022-09-19T10:20:49;2.83;;;0.97;;
9842;SDS011;4960;48.736;9.108;2022-09-19T10:23:18;3.97;;;1.03;;
9842;SDS011;4960;48.736;9.108;2022-09-19T10:25:48;6.70;;;1.30;;
9842;SDS011;4960;48.736;9.108;2022-09-19T10:28:22;4.27;;;1.20;;
9842;SDS011;4960;48.736;9.108;2022-09-19T10:30:53;5.40;;;1.20;;
9842;SDS011;4960;48.736;9.108;2022-09-19T10:33:24;7.30;;;1.77;;
9842;SDS011;4960;48.736;9.108;2022-09-19T10:35:53;5.90;;;1.17;;
9842;SDS011;4960;48.736;9.108;2022-09-19T10:38:24;5.80;;;1.20;;
9842;SDS011;4960;48.736;9.108;2022-09-19T10:40:53;2.23;;;1.13;;
9842;SDS011;4960;48.736;9.108;2022-09-19T10:43:21;5.87;;;1.07;;
9842;SDS011;4960;48.736;9.108;2022-09-19T10:45:57;1.03;;;0.77;;
9842;SDS011;4960;48.736;9.108;2022-09-19T10:48:32;2.90;;;0.80;;
9842;SDS011;4960;48.736;9.108;2022-09-19T10:50:59;6.70;;;1.00;;
9842;SDS011;4960;48.736;9.108;2022-09-19T10:53:27;4.40;;;0.90;;
9842;SDS011;4960;48.736;9.108;2022-09-19T10:55:55;3.17;;;0.70;;
9842;SDS011;4960;48.736;9.108;2022-09-19T10:58:25;5.33;;;0.93;;
9842;SDS011;4960;48.736;9.108;2022-09-19T11:00:53;2.90;;;0.90;;
9842;SDS011;4960;48.736;9.108;2022-09-19T11:03:24;3.03;;;0.60;;
9842;SDS011;4960;48.736;9.108;2022-09-19T11:06:01;1.80;;;0.70;;
9842;SDS011;4960;48.736;9.108;2022-09-19T11:08:29;3.30;;;0.70;;
9842;SDS011;4960;48.736;9.108;2022-09-19T11:10:56;2.20;;;0.73;;
9842;SDS011;4960;48.736;9.108;2022-09-19T11:13:29;2.27;;;0.80;;
9842;SDS011;4960;48.736;9.108;2022-09-19T11:16:07;4.53;;;0.80;;
9842;SDS011;4960;48.736;9.108;2022-09-19T11:18:48;5.67;;;1.00;;
9842;SDS011;4960;48.736;9.108;2022-09-19T11:21:19;4.43;;;0.70;;
9842;SDS011;4960;48.736;9.108;2022-09-19T11:24:00;3.90;;;1.00;;
9842;SDS011;4960;48.736;9.108;2022-09-19T11:26:33;3.57;;;1.17;;
9842;SDS011;4960;48.736;9.108;2022-09-19T11:29:16;2.20;;;0.83;;
9842;SDS011;4960;48.736;9.108;2022-09-19T11:31:50;4.60;;;1.20;;
9842;SDS011;4960;48.736;9.108;2022-09-19T11:34:30;2.93;;;0.97;;
9842;SDS011;4960;48.736;9.108;2022-09-19T11:37:02;3.43;;;0.80;;
9842;SDS011;4960;48.736;9.108;2022-09-19T11:39:35;3.43;;;0.70;;
9842;SDS011;4960;48.736;9.108;2022-09-19T11:42:17;3.43;;;0.60;;
9842;SDS011;4960;48.736;9.108;2022-09-19T11:44:49;3.77;;;0.80;;
9842;SDS011;4960;48.736;9.108;2022-09-19T11:50:31;5.13;;;0.90;;
9842;SDS011;4960;48.736;9.108;2022-09-19T11:53:08;1.97;;;0.70;;
9842;SDS011;4960;48.736;9.108;2022-09-19T11:55:39;6.03;;;0.73;;
9842;SDS011;4960;48.736;9.108;2022-09-19T11:58:09;4.07;;;0.90;;
9842;SDS011;4960;48.736;9.108;2022-09-19T12:00:41;3.93;;;0.77;;
9842;SDS011;4960;48.736;9.108;2022-09-19T12:03:19;4.73;;;0.80;;
9842;SDS011;4960;48.736;9.108;2022-09-19T12:05:53;2.70;;;0.80;;
9842;SDS011;4960;48.736;9.108;2022-09-19T12:08:26;2.00;;;0.53;;
9842;SDS011;4960;48.736;9.108;2022-09-19T12:10:55;4.23;;;0.70;;
9842;SDS011;4960;48.736;9.108;2022-09-19T12:13:25;1.57;;;0.70;;
9842;SDS011;4960;48.736;9.108;2022-09-19T12:15:55;4.00;;;1.17;;
9842;SDS011;4960;48.736;9.108;2022-09-19T12:18:24;3.80;;;0.77;;
9842;SDS011;4960;48.736;9.108;2022-09-19T12:20:54;3.77;;;0.60;;
9842;SDS011;4960;48.736;9.108;2022-09-19T12:23:23;4.37;;;0.73;;
9842;SDS011;4960;48.736;9.108;2022-09-19T12:26:12;3.33;;;0.80;;
9842;SDS011;4960;48.736;9.108;2022-09-19T12:28:43;3.40;;;0.73;;
9842;SDS011;4960;48.736;9.108;2022-09-19T12:31:13;3.17;;;0.83;;
9842;SDS011;4960;48.736;9.108;2022-09-19T12:33:46;5.77;;;0.90;;
9842;SDS011;4960;48.736;9.108;2022-09-19T12:36:19;3.47;;;1.13;;
9842;SDS011;4960;48.736;9.108;2022-09-19T12:38:48;0.67;;;0.60;;
9842;SDS011;4960;48.736;9.108;2022-09-19T12:41:18;2.43;;;0.80;;
9842;SDS011;4960;48.736;9.108;2022-09-19T12:43:49;3.73;;;0.67;;
9842;SDS011;4960;48.736;9.108;2022-09-19T12:46:25;1.40;;;0.60;;
9842;SDS011;4960;48.736;9.108;2022-09-19T12:48:57;3.87;;;1.00;;
9842;SDS011;4960;48.736;9.108;2022-09-19T12:51:30;2.23;;;0.60;;
9842;SDS011;4960;48.736;9.108;2022-09-19T12:54:05;5.40;;;0.80;;
9842;SDS011;4960;48.736;9.108;2022-09-19T12:56:38;4.83;;;1.03;;
9842;SDS011;4960;48.736;9.108;2022-09-19T12:59:11;1.93;;;0.67;;
9842;SDS011;4960;48.736;9.108;2022-09-19T13:01:41;1.67;;;0.70;;
9842;SDS011;4960;48.736;9.108;2022-09-19T13:04:15;3.10;;;0.70;;
9842;SDS011;4960;48.736;9.108;2022-09-19T13:06:48;4.50;;;0.90;;
9842;SDS011;4960;48.736;9.108;2022-09-19T13:09:16;2.67;;;0.50;;
9842;SDS011;4960;48.736;9.108;2022-09-19T13:11:47;4.80;;;0.87;;
9842;SDS011;4960;48.736;9.108;2022-09-19T13:14:17;3.57;;;0.83;;
9842;SDS011;4960;48.736;9.108;2022-09-19T13:16:47;5.23;;;0.73;;
9842;SDS011;4960;48.736;9.108;2022-09-19T13:19:34;2.00;;;0.67;;
9842;SDS011;4960;48.736;9.108;2022-09-19T13:22:20;3.30;;;1.27;;
9842;SDS011;4960;48.736;9.108;2022-09-19T13:25:05;1.73;;;0.60;;
9842;SDS011;4960;48.736;9.108;2022-09-19T13:27:33;1.93;;;0.70;;
9842;SDS011;4960;48.736;9.108;2022-09-19T13:30:01;2.47;;;0.60;;
9842;SDS011;4960;48.736;9.108;2022-09-19T13:32:48;3.47;;;0.90;;
9842;SDS011;4960;48.736;9.108;2022-09-19T13:35:20;2.60;;;1.00;;
9842;SDS011;4960;48.736;9.108;2022-09-19T13:37:59;3.77;;;0.77;;
9842;SDS011;4960;48.736;9.108;2022-09-19T13:40:31;1.77;;;0.40;;
9842;SDS011;4960;48.736;9.108;2022-09-19T13:43:11;2.43;;;0.60;;
9842;SDS011;4960;48.736;9.108;2022-09-19T13:45:39;1.33;;;0.60;;
9842;SDS011;4960;48.736;9.108;2022-09-19T13:48:10;2.97;;;0.53;;
9842;SDS011;4960;48.736;9.108;2022-09-19T13:50:41;1.90;;;0.63;;
9842;SDS011;4960;48.736;9.108;2022-09-19T13:53:25;2.20;;;0.70;;
9842;SDS011;4960;48.736;9.108;2022-09-19T13:55:59;5.23;;;0.70;;
9842;SDS011;4960;48.736;9.108;2022-09-19T13:58:28;4.13;;;0.70;;
9842;SDS011;4960;48.736;9.108;2022-09-19T14:01:07;2.30;;;0.70;;
9842;SDS011;4960;48.736;9.108;2022-09-19T14:03:41;2.97;;;0.73;;
9842;SDS011;4960;48.736;9.108;2022-09-19T14:06:13;4.33;;;0.70;;
9842;SDS011;4960;48.736;9.108;2022-09-19T14:08:48;2.17;;;0.70;;
9842;SDS011;4960;48.736;9.108;2022-09-19T14:11:35;2.87;;;1.03;;
9842;SDS011;4960;48.736;9.108;2022-09-19T14:16:45;6.13;;;0.60;;
9842;SDS011;4960;48.736;9.108;2022-09-19T14:19:41;3.80;;;0.60;;
9842;SDS011;4960;48.736;9.108;2022-09-19T14:22:18;3.63;;;0.60;;
9842;SDS011;4960;48.736;9.108;2022-09-19T14:24:55;2.87;;;0.67;;
9842;SDS011;4960;48.736;9.108;2022-09-19T14:30:25;2.70;;;0.67;;
9842;SDS011;4960;48.736;9.108;2022-09-19T14:32:59;1.00;;;0.60;;
9842;SDS011;4960;48.736;9.108;2022-09-19T14:35:41;0.70;;;0.57;;
9842;SDS011;4960;48.736;9.108;2022-09-19T14:38:30;3.27;;;0.60;;
9842;SDS011;4960;48.736;9.108;2022-09-19T14:41:07;4.10;;;0.93;;
9842;SDS011;4960;48.736;9.108;2022-09-19T14:46:35;4.33;;;0.80;;
9842;SDS011;4960;48.736;9.108;2022-09-19T14:49:11;4.00;;;1.00;;
9842;SDS011;4960;48.736;9.108;2022-09-19T14:51:40;3.33;;;0.97;;
9842;SDS011;4960;48.736;9.108;2022-09-19T14:54:15;2.67;;;1.00;;
9842;SDS011;4960;48.736;9.108;2022-09-19T14:56:52;7.67;;;1.20;;
9842;SDS011;4960;48.736;9.108;2022-09-19T14:59:19;2.60;;;1.20;;
9842;SDS011;4960;48.736;9.108;2022-09-19T15:01:47;3.37;;;1.30;;
9842;SDS011;4960;48.736;9.108;2022-09-19T15:04:19;2.77;;;1.10;;
9842;SDS011;4960;48.736;9.108;2022-09-19T15:06:49;4.93;;;1.00;;
9842;SDS011;4960;48.736;9.108;2022-09-19T15:09:18;6.33;;;1.50;;
9842;SDS011;4960;48.736;9.108;2022-09-19T15:11:46;3.83;;;1.10;;
9842;SDS011;4960;48.736;9.108;2022-09-19T15:14:15;6.10;;;1.23;;
9842;SDS011;4960;48.736;9.108;2022-09-19T15:16:42;3.73;;;1.00;;
9842;SDS011;4960;48.736;9.108;2022-09-19T15:19:10;2.30;;;1.10;;
9842;SDS011;4960;48.736;9.108;2022-09-19T15:21:37;2.20;;;1.07;;
9842;SDS011;4960;48.736;9.108;2022-09-19T15:24:05;4.47;;;1.00;;
9842;SDS011;4960;48.736;9.108;2022-09-19T15:26:34;6.43;;;1.43;;
9842;SDS011;4960;48.736;9.108;2022-09-19T15:29:04;3.10;;;0.90;;
9842;SDS011;4960;48.736;9.108;2022-09-19T15:31:36;2.93;;;1.33;;
9842;SDS011;4960;48.736;9.108;2022-09-19T15:34:03;3.80;;;1.27;;
9842;SDS011;4960;48.736;9.108;2022-09-19T15:36:31;2.77;;;1.20;;
9842;SDS011;4960;48.736;9.108;2022-09-19T15:39:00;3.00;;;1.20;;
9842;SDS011;4960;48.736;9.108;2022-09-19T15:41:28;5.00;;;1.20;;
9842;SDS011;4960;48.736;9.108;2022-09-19T15:43:56;7.47;;;1.40;;
9842;SDS011;4960;48.736;9.108;2022-09-19T15:49:17;3.73;;;1.13;;
9842;SDS011;4960;48.736;9.108;2022-09-19T15:51:51;4.00;;;1.13;;
9842;SDS011;4960;48.736;9.108;2022-09-19T15:54:19;3.07;;;1.10;;
9842;SDS011;4960;48.736;9.108;2022-09-19T15:56:51;5.33;;;1.20;;